Time;durP1;ratioP1;P1;durP2;ratioP2;P2;SDS_P1;SDS_P2;PMS_P1;PMS_P2;Temp;Humidity;BMP_temperature;BMP_pressure;BME280_temperature;BME280_humidity;BME280_pressure;Samples;Min_cycle;Max_cycle;Signal;HPM_P1;HPM_P2
2023/04/04 00:01:37;;;;;;;;;;;;;;;9.40;50.12;103244.28;5056549;28;1894;-84
2023/04/04 00:04:03;;;;;;;;;;;;;;;9.37;50.28;103240.84;5057583;28;734;-83
2023/04/04 00:06:29;;;;;;;;;;;;;;;9.36;50.57;103239.97;5057966;28;834;-84
2023/04/04 00:08:55;;;;;;;;;;;;;;;9.32;50.59;103241.00;5071978;28;771;-84
2023/04/04 00:11:21;;;;;;;;;;;;;;;9.30;50.68;103239.31;5056253;28;1174;-84
2023/04/04 00:13:47;;;;;;;;;;;;;;;9.30;50.24;103245.56;5057296;28;789;-84
2023/04/04 00:16:13;;;;;;;;;;;;;;;9.26;50.66;103246.59;5057104;28;908;-84
2023/04/04 00:18:39;;;;;;;;;;;;;;;9.24;50.85;103235.06;5057135;28;924;-84
2023/04/04 00:21:05;;;;;;;;;;;;;;;9.24;50.75;103237.72;5057087;28;1200;-84
2023/04/04 00:23:31;;;;;;;;;;;;;;;9.24;50.54;103239.53;5057511;28;1894;-84
2023/04/04 00:25:57;;;;;;;;;;;;;;;9.24;50.43;103232.38;5057445;28;837;-84
2023/04/04 00:28:23;;;;;;;;;;;;;;;9.20;50.69;103226.25;5057592;28;888;-84
2023/04/04 00:30:49;;;;;;;;;;;;;;;9.19;50.68;103229.00;5057247;28;889;-84
2023/04/04 00:33:15;;;;;;;;;;;;;;;9.17;50.43;103223.72;5057929;28;1279;-84
2023/04/04 00:35:41;;;;;;;;;;;;;;;9.15;50.57;103222.91;5058302;28;802;-83
2023/04/04 00:38:07;;;;;;;;;;;;;;;9.14;50.80;103225.59;5057713;28;727;-84
2023/04/04 00:40:41;;;;;;;;;;;;;;;9.11;50.73;103231.94;5057701;28;821;-83
2023/04/04 00:43:06;;;;;;;;;;;;;;;9.10;50.64;103226.66;5058257;28;1894;-84
2023/04/04 00:45:33;;;;;;;;;;;;;;;9.10;50.59;103227.53;5058531;28;856;-84
2023/04/04 00:48:01;;;;;;;;;;;;;;;9.09;50.46;103222.25;5058776;28;534;-84
2023/04/04 00:50:28;;;;;;;;;;;;;;;9.03;50.73;103219.78;5055243;28;830;-84
2023/04/04 00:52:54;;;;;;;;;;;;;;;8.98;50.85;103217.28;5055758;28;1184;-84
2023/04/04 00:55:20;;;;;;;;;;;;;;;8.97;50.55;103214.66;5055975;28;910;-84
2023/04/04 00:57:46;;;;;;;;;;;;;;;8.96;50.83;103213.78;5055926;28;814;-83
2023/04/04 01:00:14;;;;;;;;;;;;;;;8.94;51.00;103204.91;5055338;28;803;-84
2023/04/04 01:02:40;;;;;;;;;;;;;;;8.91;50.59;103208.56;5055869;28;1902;-84
2023/04/04 01:05:07;;;;;;;;;;;;;;;8.86;50.81;103209.69;5056231;28;879;-83
2023/04/04 01:07:36;;;;;;;;;;;;;;;8.79;50.77;103206.34;5056207;28;749;-83
2023/04/04 01:10:05;;;;;;;;;;;;;;;8.75;51.02;103201.13;5055232;28;917;-84
2023/04/04 01:12:31;;;;;;;;;;;;;;;8.70;51.02;103187.94;5055653;28;1200;-84
2023/04/04 01:14:57;;;;;;;;;;;;;;;8.66;51.28;103194.34;5055936;28;899;-83
2023/04/04 01:17:25;;;;;;;;;;;;;;;8.65;51.53;103195.22;5056594;28;994;-83
2023/04/04 01:20:05;;;;;;;;;;;;;;;8.60;51.33;103192.72;5056145;28;920;-83
2023/04/04 01:22:33;;;;;;;;;;;;;;;8.56;51.52;103182.22;5056110;28;1894;-84
2023/04/04 01:25:01;;;;;;;;;;;;;;;8.50;51.72;103179.72;5056516;28;814;-84
2023/04/04 01:27:26;;;;;;;;;;;;;;;8.41;52.12;103183.59;5056169;28;797;-83
2023/04/04 01:29:53;;;;;;;;;;;;;;;8.43;51.91;103186.22;5071181;28;806;-83
2023/04/04 01:32:24;;;;;;;;;;;;;;;8.43;51.98;103188.88;5056432;28;1242;-84
2023/04/04 01:35:07;;;;;;;;;;;;;;;8.39;52.04;103189.94;5057623;28;590;-83
2023/04/04 01:38:10;;;;;;;;;;;;;;;8.34;52.09;103187.34;5057564;28;574;-83
2023/04/04 01:40:37;;;;;;;;;;;;;;;8.29;52.54;103184.84;5051285;28;1229;-83
2023/04/04 01:43:03;;;;;;;;;;;;;;;8.35;52.50;103186.47;5054478;28;1894;-83
2023/04/04 01:45:29;;;;;;;;;;;;;;;8.38;52.51;103181.03;5054674;28;816;-83
2023/04/04 01:47:57;;;;;;;;;;;;;;;8.36;52.36;103182.88;5054587;28;605;-83
2023/04/04 01:50:23;;;;;;;;;;;;;;;8.26;52.40;103174.25;5055357;28;724;-83
2023/04/04 01:52:48;;;;;;;;;;;;;;;8.21;52.21;103176.22;5058488;28;1191;-83
2023/04/04 01:55:14;;;;;;;;;;;;;;;8.17;52.86;103165.69;5058659;28;897;-83
2023/04/04 01:57:41;;;;;;;;;;;;;;;8.18;53.01;103172.78;5058562;28;816;-83
2023/04/04 02:00:07;;;;;;;;;;;;;;;8.15;52.87;103171.06;5057895;28;862;-84
2023/04/04 02:02:33;;;;;;;;;;;;;;;8.12;52.71;103168.50;5059090;28;1972;-83
2023/04/04 02:04:59;;;;;;;;;;;;;;;8.10;52.65;103173.03;5058110;28;798;-83
2023/04/04 02:07:25;;;;;;;;;;;;;;;8.09;52.80;103168.59;5058371;28;794;-83
2023/04/04 02:09:52;;;;;;;;;;;;;;;8.09;53.34;103173.94;5058188;28;811;-83
2023/04/04 02:12:18;;;;;;;;;;;;;;;8.10;53.73;103169.47;5057745;28;1242;-83
2023/04/04 02:14:44;;;;;;;;;;;;;;;8.10;53.69;103166.78;5058194;28;801;-83
2023/04/04 02:17:10;;;;;;;;;;;;;;;8.13;53.50;103161.34;5058371;28;883;-83
2023/04/04 02:19:36;;;;;;;;;;;;;;;8.07;53.61;103157.09;5058478;28;882;-83
2023/04/04 02:22:02;;;;;;;;;;;;;;;8.08;53.48;103169.53;5058991;28;1947;-83
2023/04/04 02:24:28;;;;;;;;;;;;;;;8.07;53.77;103172.25;5057942;28;833;-83
2023/04/04 02:26:54;;;;;;;;;;;;;;;7.97;53.71;103163.66;5059447;28;842;-83
2023/04/04 02:29:20;;;;;;;;;;;;;;;7.92;53.97;103176.28;5059617;28;826;-83
2023/04/04 02:31:46;;;;;;;;;;;;;;;7.91;54.54;103174.53;5058843;28;1205;-83
2023/04/04 02:34:12;;;;;;;;;;;;;;;7.89;54.24;103158.56;5059305;28;826;-83
2023/04/04 02:36:38;;;;;;;;;;;;;;;7.90;54.36;103160.31;5058885;28;818;-83
2023/04/04 02:39:04;;;;;;;;;;;;;;;7.88;54.14;103169.31;5058744;28;825;-83
2023/04/04 02:41:30;;;;;;;;;;;;;;;7.87;54.33;103163.09;5057706;28;1378;-83
2023/04/04 02:43:56;;;;;;;;;;;;;;;7.87;54.01;103167.56;5058342;28;1886;-83
2023/04/04 02:46:22;;;;;;;;;;;;;;;7.85;54.63;103166.69;5058506;28;854;-83
2023/04/04 02:48:49;;;;;;;;;;;;;;;7.83;54.85;103172.09;5058342;28;810;-83
2023/04/04 02:51:15;;;;;;;;;;;;;;;7.84;54.62;103159.63;5058504;28;1280;-83
2023/04/04 02:53:41;;;;;;;;;;;;;;;7.82;54.93;103161.47;5058578;28;795;-83
2023/04/04 02:56:07;;;;;;;;;;;;;;;7.82;55.07;103156.13;5072937;28;938;-83
2023/04/04 02:58:33;;;;;;;;;;;;;;;7.79;54.78;103151.75;5055308;28;923;-83
2023/04/04 03:00:59;;;;;;;;;;;;;;;7.73;54.83;103147.47;5055993;28;1211;-83
2023/04/04 03:03:26;;;;;;;;;;;;;;;7.72;55.04;103151.06;5056111;28;1957;-83
2023/04/04 03:05:52;;;;;;;;;;;;;;;7.69;55.15;103150.31;5056845;28;876;-83
2023/04/04 03:08:18;;;;;;;;;;;;;;;7.70;55.30;103149.38;5056854;28;844;-83
2023/04/04 03:10:45;;;;;;;;;;;;;;;7.71;55.37;103145.78;5056104;28;915;-83
2023/04/04 03:13:11;;;;;;;;;;;;;;;7.69;55.63;103144.97;5056880;28;1274;-83
2023/04/04 03:15:39;;;;;;;;;;;;;;;7.66;55.60;103143.25;5056417;28;835;-83
2023/04/04 03:18:05;;;;;;;;;;;;;;;7.65;55.93;103141.50;5057069;28;879;-83
2023/04/04 03:20:31;;;;;;;;;;;;;;;7.64;55.42;103138.88;5055955;28;816;-83
2023/04/04 03:22:57;;;;;;;;;;;;;;;7.58;55.10;103131.94;5056343;28;1898;-83
2023/04/04 03:25:23;;;;;;;;;;;;;;;7.53;55.43;103131.19;5056090;28;834;-83
2023/04/04 03:27:49;;;;;;;;;;;;;;;7.50;55.29;103125.97;5056325;28;807;-83
2023/04/04 03:30:15;;;;;;;;;;;;;;;7.49;55.50;103124.22;5056176;28;798;-83
2023/04/04 03:32:41;;;;;;;;;;;;;;;7.49;55.28;103126.88;5057503;28;1246;-83
2023/04/04 03:35:07;;;;;;;;;;;;;;;7.47;55.90;103120.69;5056074;28;907;-83
2023/04/04 03:37:34;;;;;;;;;;;;;;;7.43;55.40;103121.72;5055913;28;894;-83
2023/04/04 03:40:00;;;;;;;;;;;;;;;7.47;55.55;103120.69;5055412;28;870;-83
2023/04/04 03:42:26;;;;;;;;;;;;;;;7.51;55.53;103119.69;5055863;28;1898;-83
2023/04/04 03:44:52;;;;;;;;;;;;;;;7.49;55.82;103121.56;5055908;28;786;-83
2023/04/04 03:47:19;;;;;;;;;;;;;;;7.45;55.30;103111.88;5055867;28;974;-83
2023/04/04 03:49:46;;;;;;;;;;;;;;;7.40;55.35;103109.34;5055844;28;975;-83
2023/04/04 03:52:12;;;;;;;;;;;;;;;7.40;55.58;103114.69;5055232;28;1184;-83
2023/04/04 03:54:38;;;;;;;;;;;;;;;7.41;55.54;103115.56;5055692;28;794;-83
2023/04/04 03:57:04;;;;;;;;;;;;;;;7.44;55.48;103121.69;5055747;28;818;-83
2023/04/04 03:59:30;;;;;;;;;;;;;;;7.47;56.17;103118.94;5055631;28;896;-83
2023/04/04 04:01:56;;;;;;;;;;;;;;;7.48;56.17;103125.16;5055115;28;1192;-83
2023/04/04 04:04:22;;;;;;;;;;;;;;;7.46;56.19;103116.28;5055839;28;1878;-83
2023/04/04 04:06:48;;;;;;;;;;;;;;;7.42;56.54;103120.84;5070785;28;878;-83
2023/04/04 04:09:14;;;;;;;;;;;;;;;7.39;56.29;103118.28;5070647;28;803;-83
2023/04/04 04:11:40;;;;;;;;;;;;;;;7.36;56.48;103115.69;5054970;28;1270;-83
2023/04/04 04:14:06;;;;;;;;;;;;;;;7.38;56.62;103115.66;5054776;28;837;-83
2023/04/04 04:16:32;;;;;;;;;;;;;;;7.42;56.58;103114.63;5070771;28;812;-83
2023/04/04 04:18:58;;;;;;;;;;;;;;;7.42;56.65;103117.31;5055328;28;910;-83
2023/04/04 04:21:27;;;;;;;;;;;;;;;7.43;56.48;103119.06;5055016;28;1189;-83
2023/04/04 04:23:53;;;;;;;;;;;;;;;7.45;57.32;103122.53;5055351;28;1891;-83
2023/04/04 04:26:20;;;;;;;;;;;;;;;7.44;56.77;103118.13;5070773;28;913;-83
2023/04/04 04:28:47;;;;;;;;;;;;;;;7.42;56.62;103125.31;5055714;28;841;-83
2023/04/04 04:31:12;;;;;;;;;;;;;;;7.42;57.08;103123.53;5055087;28;1201;-83
2023/04/04 04:33:38;;;;;;;;;;;;;;;7.44;56.87;103128.81;5055267;28;897;-83
2023/04/04 04:36:05;;;;;;;;;;;;;;;7.46;56.15;103122.50;5055406;28;753;-83
2023/04/04 04:38:32;;;;;;;;;;;;;;;7.50;55.95;103120.63;5055836;28;879;-83
2023/04/04 04:40:59;;;;;;;;;;;;;;;7.48;56.25;103120.69;5054620;28;1215;-83
2023/04/04 04:43:26;;;;;;;;;;;;;;;7.46;56.07;103118.94;5055370;28;1898;-83
2023/04/04 04:45:52;;;;;;;;;;;;;;;7.45;55.78;103119.88;5055425;28;876;-83
2023/04/04 04:48:18;;;;;;;;;;;;;;;7.40;55.70;103124.50;5055503;28;883;-83
2023/04/04 04:50:45;;;;;;;;;;;;;;;7.38;55.87;103126.34;5055200;28;886;-84
2023/04/04 04:53:14;;;;;;;;;;;;;;;7.35;56.42;103119.28;5055620;28;1184;-83
2023/04/04 04:55:41;;;;;;;;;;;;;;;7.33;56.25;103120.25;5055353;28;799;-83
2023/04/04 04:58:09;;;;;;;;;;;;;;;7.27;56.08;103123.97;5055438;28;724;-84
2023/04/04 05:00:36;;;;;;;;;;;;;;;7.27;56.74;103123.09;5054903;28;819;-83
2023/04/04 05:03:05;;;;;;;;;;;;;;;7.23;56.43;103127.69;5055542;28;1968;-83
2023/04/04 05:05:33;;;;;;;;;;;;;;;7.19;56.84;103129.56;5055442;28;804;-84
2023/04/04 05:08:02;;;;;;;;;;;;;;;7.24;56.99;103137.44;5055731;28;720;-83
2023/04/04 05:10:29;;;;;;;;;;;;;;;7.31;56.97;103127.44;5054702;28;720;-83
2023/04/04 05:12:56;;;;;;;;;;;;;;;7.37;56.63;103130.78;5055603;28;1160;-83
2023/04/04 05:15:24;;;;;;;;;;;;;;;7.39;56.52;103138.78;5055544;28;976;-84
2023/04/04 05:17:50;;;;;;;;;;;;;;;7.40;56.83;103132.50;5055638;28;887;-83
2023/04/04 05:20:16;;;;;;;;;;;;;;;7.39;56.80;103136.09;5054880;28;731;-84
2023/04/04 05:22:43;;;;;;;;;;;;;;;7.40;56.74;103148.53;5055197;28;1949;-83
2023/04/04 05:25:12;;;;;;;;;;;;;;;7.40;57.15;103156.53;5056767;28;827;-84
2023/04/04 05:27:39;;;;;;;;;;;;;;;7.40;56.70;103146.75;5059188;28;858;-83
2023/04/04 05:30:06;;;;;;;;;;;;;;;7.38;57.00;103145.03;5059180;28;890;-84
2023/04/04 05:32:33;;;;;;;;;;;;;;;7.32;56.97;103147.88;5059597;28;1173;-83
2023/04/04 05:34:59;;;;;;;;;;;;;;;7.30;56.97;103152.41;5059971;28;803;-83
2023/04/04 05:37:25;;;;;;;;;;;;;;;7.30;57.18;103147.94;5060160;28;814;-83
2023/04/04 05:39:51;;;;;;;;;;;;;;;7.30;57.31;103147.06;5059562;28;845;-83
2023/04/04 05:42:17;;;;;;;;;;;;;;;7.27;57.06;103152.47;5057498;28;1161;-83
2023/04/04 05:44:43;;;;;;;;;;;;;;;7.27;57.05;103147.13;5057989;28;1957;-83
2023/04/04 05:47:09;;;;;;;;;;;;;;;7.24;57.28;103148.09;5058195;28;966;-83
2023/04/04 05:49:35;;;;;;;;;;;;;;;7.22;57.39;103144.63;5057915;28;901;-83
2023/04/04 05:52:01;;;;;;;;;;;;;;;7.26;57.30;103148.06;5057747;28;1195;-84
2023/04/04 05:54:27;;;;;;;;;;;;;;;7.29;57.82;103150.66;5058139;28;825;-83
2023/04/04 05:56:53;;;;;;;;;;;;;;;7.32;57.19;103155.88;5057792;28;759;-83
2023/04/04 05:59:19;;;;;;;;;;;;;;;7.37;56.90;103151.28;5058394;28;811;-83
2023/04/04 06:01:45;;;;;;;;;;;;;;;7.39;57.28;103155.66;5057487;28;1270;-83
2023/04/04 06:04:11;;;;;;;;;;;;;;;7.47;57.19;103155.41;5057976;28;1959;-83
2023/04/04 06:06:37;;;;;;;;;;;;;;;7.55;57.25;103155.19;5057445;28;693;-83
2023/04/04 06:09:03;;;;;;;;;;;;;;;7.61;56.92;103153.22;5058583;28;909;-83
2023/04/04 06:11:30;;;;;;;;;;;;;;;7.64;56.89;103154.91;5057520;28;1168;-83
2023/04/04 06:13:56;;;;;;;;;;;;;;;7.68;56.08;103152.09;5057911;28;817;-84
2023/04/04 06:16:22;;;;;;;;;;;;;;;7.75;55.80;103155.44;5057899;28;799;-84
2023/04/04 06:18:48;;;;;;;;;;;;;;;7.71;56.03;103154.66;5057563;28;740;-83
2023/04/04 06:21:14;;;;;;;;;;;;;;;7.62;57.30;103160.28;5055538;28;1308;-83
2023/04/04 06:23:40;;;;;;;;;;;;;;;7.65;56.90;103153.97;5057943;28;2228;-83
2023/04/04 06:26:07;;;;;;;;;;;;;;;7.70;56.47;103160.94;5057565;28;902;-83
2023/04/04 06:28:33;;;;;;;;;;;;;;;7.59;56.65;103160.41;5057755;28;799;-83
2023/04/04 06:30:59;;;;;;;;;;;;;;;7.50;57.42;103166.03;5056913;28;1266;-83
2023/04/04 06:33:25;;;;;;;;;;;;;;;7.47;57.68;103171.44;5057242;28;847;-83
2023/04/04 06:35:51;;;;;;;;;;;;;;;7.55;57.30;103161.41;5057300;28;976;-83
2023/04/04 06:38:17;;;;;;;;;;;;;;;7.63;56.98;103167.38;5056913;28;813;-83
2023/04/04 06:40:43;;;;;;;;;;;;;;;7.71;56.37;103172.50;5057068;28;878;-83
2023/04/04 06:43:09;;;;;;;;;;;;;;;7.63;56.35;103166.50;5057210;28;1906;-83
2023/04/04 06:45:35;;;;;;;;;;;;;;;7.53;56.31;103165.03;5057431;28;813;-83
2023/04/04 06:48:01;;;;;;;;;;;;;;;7.51;56.98;103164.22;5057992;28;621;-83
2023/04/04 06:50:32;;;;;;;;;;;;;;;7.54;56.88;103161.44;5057083;28;815;-83
2023/04/04 06:53:00;;;;;;;;;;;;;;;7.55;56.69;103160.53;5057140;28;1241;-84
2023/04/04 06:55:26;;;;;;;;;;;;;;;7.52;56.85;103155.28;5057262;28;811;-83
2023/04/04 06:57:52;;;;;;;;;;;;;;;7.49;56.53;103156.25;5057212;28;870;-83
2023/04/04 07:00:18;;;;;;;;;;;;;;;7.42;57.11;103158.25;5056874;28;830;-83
2023/04/04 07:02:44;;;;;;;;;;;;;;;7.46;57.57;103159.88;5057077;28;1284;-83
2023/04/04 07:05:12;;;;;;;;;;;;;;;7.53;58.02;103165.03;5057045;28;1886;-83
2023/04/04 07:07:38;;;;;;;;;;;;;;;7.28;57.74;103160.47;5057075;28;922;-83
2023/04/04 07:10:04;;;;;;;;;;;;;;;7.45;57.55;103166.16;5056341;28;811;-84
2023/04/04 07:12:31;;;;;;;;;;;;;;;7.64;56.90;103157.56;5056901;28;1169;-83
2023/04/04 07:14:57;;;;;;;;;;;;;;;7.72;56.27;103158.22;5057312;28;890;-83
2023/04/04 07:17:24;;;;;;;;;;;;;;;7.32;54.87;103151.44;5057038;28;814;-83
2023/04/04 07:19:50;;;;;;;;;;;;;;;7.47;56.49;103150.97;5057758;28;877;-84
2023/04/04 07:22:16;;;;;;;;;;;;;;;7.56;55.24;103149.78;5057004;28;1283;-83
2023/04/04 07:24:42;;;;;;;;;;;;;;;7.78;55.03;103151.81;5057424;28;1886;-84
2023/04/04 07:27:08;;;;;;;;;;;;;;;7.97;54.27;103142.28;5057248;28;844;-84
2023/04/04 07:29:34;;;;;;;;;;;;;;;8.09;53.80;103144.53;5057472;28;821;-83
2023/04/04 07:32:00;;;;;;;;;;;;;;;8.08;53.73;103136.56;5055874;28;1178;-83
2023/04/04 07:34:26;;;;;;;;;;;;;;;7.82;54.09;103148.09;5056631;28;815;-83
2023/04/04 07:36:52;;;;;;;;;;;;;;;7.81;54.46;103143.69;5056778;28;808;-84
2023/04/04 07:39:18;;;;;;;;;;;;;;;7.81;53.40;103139.22;5056848;28;817;-83
2023/04/04 07:41:44;;;;;;;;;;;;;;;7.66;53.96;103148.56;5055798;28;1174;-83
2023/04/04 07:44:10;;;;;;;;;;;;;;;7.72;54.53;103143.06;5056362;28;1961;-83
2023/04/04 07:46:37;;;;;;;;;;;;;;;7.96;54.12;103135.16;5056713;28;854;-83
2023/04/04 07:49:03;;;;;;;;;;;;;;;8.11;53.22;103129.31;5071219;28;896;-84
2023/04/04 07:51:29;;;;;;;;;;;;;;;8.14;52.67;103137.22;5055580;28;1199;-83
2023/04/04 07:53:56;;;;;;;;;;;;;;;8.18;53.10;103138.88;5056630;28;907;-83
2023/04/04 07:56:22;;;;;;;;;;;;;;;7.90;52.39;103130.91;5056985;28;791;-83
2023/04/04 07:58:48;;;;;;;;;;;;;;;8.27;52.32;103133.22;5056530;28;886;-83
2023/04/04 08:01:14;;;;;;;;;;;;;;;8.50;52.72;103137.81;5056075;28;1164;-84
2023/04/04 08:03:40;;;;;;;;;;;;;;;8.59;52.06;103133.94;5056281;28;1890;-84
2023/04/04 08:06:06;;;;;;;;;;;;;;;8.86;51.84;103132.94;5056392;28;798;-84
2023/04/04 08:08:32;;;;;;;;;;;;;;;8.88;51.47;103135.56;5056958;28;828;-83
2023/04/04 08:10:58;;;;;;;;;;;;;;;8.80;51.31;103133.16;5055588;28;1298;-84
2023/04/04 08:13:27;;;;;;;;;;;;;;;8.97;50.65;103137.03;5056033;28;814;-83
2023/04/04 08:15:53;;;;;;;;;;;;;;;9.23;51.76;103134.22;5056153;28;762;-84
2023/04/04 08:18:19;;;;;;;;;;;;;;;9.40;51.16;103128.22;5056134;28;806;-84
2023/04/04 08:20:45;;;;;;;;;;;;;;;9.46;49.44;103131.53;5055565;28;810;-84
2023/04/04 08:23:12;;;;;;;;;;;;;;;8.94;48.86;103132.63;5055280;28;1178;-83
2023/04/04 08:25:38;;;;;;;;;;;;;;;9.00;49.22;103136.91;5056806;28;1890;-84
2023/04/04 08:28:04;;;;;;;;;;;;;;;9.06;49.07;103128.66;5056115;28;735;-84
2023/04/04 08:30:30;;;;;;;;;;;;;;;9.10;48.20;103133.81;5054986;28;806;-84
2023/04/04 08:32:56;;;;;;;;;;;;;;;8.98;48.40;103133.41;5055536;28;1150;-84
2023/04/04 08:35:22;;;;;;;;;;;;;;;9.16;48.77;103125.56;5056045;28;838;-84
2023/04/04 08:37:48;;;;;;;;;;;;;;;9.47;48.85;103122.56;5055867;28;881;-84
2023/04/04 08:40:15;;;;;;;;;;;;;;;9.40;48.68;103126.41;5055295;28;684;-83
2023/04/04 08:42:43;;;;;;;;;;;;;;;9.36;49.14;103110.53;5055596;28;1177;-84
2023/04/04 08:45:10;;;;;;;;;;;;;;;9.49;49.22;103109.97;5055518;28;1953;-84
2023/04/04 08:47:38;;;;;;;;;;;;;;;9.60;48.42;103100.63;5054868;28;943;-84
2023/04/04 08:50:06;;;;;;;;;;;;;;;10.00;48.65;103106.09;5054442;28;865;-84
2023/04/04 08:52:33;;;;;;;;;;;;;;;10.15;48.57;103109.97;5054889;28;1258;-83
2023/04/04 08:55:03;;;;;;;;;;;;;;;10.17;48.68;103108.06;5054733;28;881;-84
2023/04/04 08:57:29;;;;;;;;;;;;;;;10.07;48.61;103106.72;5054765;28;733;-84
2023/04/04 08:59:55;;;;;;;;;;;;;;;10.23;48.50;103105.19;5052759;28;811;-84
2023/04/04 09:03:09;;;;;;;;;;;;;;;10.32;47.89;103109.25;5054595;28;1247;-84
2023/04/04 09:05:36;;;;;;;;;;;;;;;10.48;47.76;103115.69;5032537;28;1959;-84
2023/04/04 09:08:06;;;;;;;;;;;;;;;10.59;48.13;103107.19;5032549;28;1272;-84
2023/04/04 09:10:32;;;;;;;;;;;;;;;10.73;48.48;103112.81;5044256;28;946;-84
2023/04/04 09:12:59;;;;;;;;;;;;;;;10.57;47.48;103117.97;5054965;28;1266;-84
2023/04/04 09:15:25;;;;;;;;;;;;;;;9.99;48.10;103107.03;5054961;28;885;-84
2023/04/04 09:17:51;;;;;;;;;;;;;;;10.21;47.26;103107.00;5054715;28;791;-84
2023/04/04 09:20:40;;;;;;;;;;;;;;;10.30;48.17;103100.41;5054194;28;898;-84
2023/04/04 09:23:10;;;;;;;;;;;;;;;10.58;48.00;103106.31;5054973;28;1256;-84
2023/04/04 09:25:36;;;;;;;;;;;;;;;10.52;45.73;103095.88;5069771;28;1867;-84
2023/04/04 09:28:04;;;;;;;;;;;;;;;10.72;45.89;103096.78;5053326;28;798;-84
2023/04/04 09:30:34;;;;;;;;;;;;;;;10.59;45.24;103100.00;5053954;28;751;-84
2023/04/04 09:33:03;;;;;;;;;;;;;;;10.56;45.57;103091.22;5054782;28;1188;-84
2023/04/04 09:35:32;;;;;;;;;;;;;;;10.39;44.44;103088.41;5054651;28;775;-84
2023/04/04 09:37:58;;;;;;;;;;;;;;;10.90;42.79;103095.91;5054832;28;795;-84
2023/04/04 09:40:26;;;;;;;;;;;;;;;11.16;42.50;103092.91;5054336;28;743;-84
2023/04/04 09:42:54;;;;;;;;;;;;;;;11.17;41.76;103100.00;5070772;28;1231;-84
2023/04/04 09:45:24;;;;;;;;;;;;;;;11.46;42.51;103092.38;5055003;28;1934;-83
2023/04/04 09:47:51;;;;;;;;;;;;;;;11.53;42.49;103088.47;5054799;28;579;-84
2023/04/04 09:50:22;;;;;;;;;;;;;;;11.70;42.38;103087.63;5054431;28;807;-84
2023/04/04 09:52:51;;;;;;;;;;;;;;;11.86;42.04;103083.25;5054602;28;1248;-83
2023/04/04 09:55:17;;;;;;;;;;;;;;;11.91;41.53;103085.75;5070052;28;818;-83
2023/04/04 09:57:45;;;;;;;;;;;;;;;11.80;41.90;103094.34;5054520;28;887;-83
2023/04/04 10:00:18;;;;;;;;;;;;;;;11.72;41.44;103089.31;5054319;28;906;-84
2023/04/04 10:02:48;;;;;;;;;;;;;;;11.58;41.65;103094.47;5054704;28;1322;-84
2023/04/04 10:05:15;;;;;;;;;;;;;;;11.63;40.36;103100.50;5054528;28;1914;-84
2023/04/04 10:07:42;;;;;;;;;;;;;;;11.85;40.49;103097.66;5054642;28;797;-84
2023/04/04 10:10:09;;;;;;;;;;;;;;;11.53;39.17;103104.59;5053884;28;795;-84
2023/04/04 10:12:36;;;;;;;;;;;;;;;11.72;39.07;103102.75;5056072;28;1216;-84
2023/04/04 10:15:02;;;;;;;;;;;;;;;11.75;39.03;103097.22;5073532;28;1038;-84
2023/04/04 10:17:37;;;;;;;;;;;;;;;11.67;39.00;103088.66;5058419;28;815;-84
2023/04/04 10:20:05;;;;;;;;;;;;;;;11.91;38.87;103089.28;5057554;28;541;-84
2023/04/04 10:22:32;;;;;;;;;;;;;;;12.65;39.41;103086.31;5057982;28;1215;-84
2023/04/04 10:24:58;;;;;;;;;;;;;;;12.78;39.02;103079.34;5058085;28;1898;-84
2023/04/04 10:27:25;;;;;;;;;;;;;;;12.65;38.46;103067.47;5058389;28;903;-84
2023/04/04 10:29:51;;;;;;;;;;;;;;;12.89;38.39;103079.63;5058155;28;892;-84
2023/04/04 10:32:25;;;;;;;;;;;;;;;13.20;39.19;103064.50;5057628;28;1277;-84
2023/04/04 10:35:09;;;;;;;;;;;;;;;12.97;37.19;103072.94;5058117;28;584;-84
2023/04/04 10:37:57;;;;;;;;;;;;;;;13.13;37.93;103063.06;5059122;28;528;-83
2023/04/04 10:40:31;;;;;;;;;;;;;;;13.38;38.87;103066.16;5057166;28;908;-84
2023/04/04 10:43:01;;;;;;;;;;;;;;;13.23;36.02;103061.63;5058952;28;1263;-84
2023/04/04 10:45:29;;;;;;;;;;;;;;;13.32;35.48;103060.22;5059537;28;1894;-84
2023/04/04 10:47:56;;;;;;;;;;;;;;;13.52;36.37;103045.59;5059645;28;534;-84
2023/04/04 10:50:22;;;;;;;;;;;;;;;13.44;36.05;103043.34;5060499;28;805;-84
2023/04/04 10:52:49;;;;;;;;;;;;;;;13.02;36.57;103050.19;5059353;28;1268;-84
2023/04/04 10:55:16;;;;;;;;;;;;;;;12.56;36.27;103051.81;5058188;28;715;-84
2023/04/04 10:57:45;;;;;;;;;;;;;;;12.82;36.46;103048.59;5057688;28;797;-84
2023/04/04 11:00:17;;;;;;;;;;;;;;;12.96;36.29;103045.13;5057584;28;806;-84
2023/04/04 11:02:58;;;;;;;;;;;;;;;13.43;34.76;103044.31;5058104;28;1271;-84
2023/04/04 11:05:31;;;;;;;;;;;;;;;13.98;35.64;103036.56;5058119;28;1953;-84
2023/04/04 11:08:05;;;;;;;;;;;;;;;14.33;35.27;103037.09;5056760;28;853;-84
2023/04/04 11:10:40;;;;;;;;;;;;;;;14.15;35.65;103035.50;5058699;28;837;-84
2023/04/04 11:13:12;;;;;;;;;;;;;;;14.09;34.15;103032.34;5057544;28;1188;-84
2023/04/04 11:15:58;;;;;;;;;;;;;;;14.15;34.50;103031.94;5056633;28;850;-84
2023/04/04 11:18:30;;;;;;;;;;;;;;;14.53;34.57;103030.50;5056516;28;782;-84
2023/04/04 11:21:04;;;;;;;;;;;;;;;14.00;33.05;103023.81;5055802;28;1368;-84
2023/04/04 11:23:48;;;;;;;;;;;;;;;13.82;33.08;103022.22;5055840;28;531;-84
2023/04/04 11:26:18;;;;;;;;;;;;;;;14.01;33.51;103017.47;5056352;28;1951;-84
2023/04/04 11:28:45;;;;;;;;;;;;;;;14.00;32.69;103020.25;5056311;28;791;-84
2023/04/04 11:31:17;;;;;;;;;;;;;;;14.11;33.40;103020.47;5055643;28;1286;-84
2023/04/04 11:33:59;;;;;;;;;;;;;;;14.14;31.35;103012.19;5056109;28;891;-84
2023/04/04 11:36:34;;;;;;;;;;;;;;;13.90;32.50;103017.25;5056302;28;985;-84
2023/04/04 11:39:06;;;;;;;;;;;;;;;14.30;32.96;103014.81;5056366;28;850;-84
2023/04/04 11:42:02;;;;;;;;;;;;;;;14.40;32.27;103016.00;5055252;28;1197;-84
2023/04/04 11:44:30;;;;;;;;;;;;;;;14.50;32.56;103009.09;5056109;28;1951;-84
2023/04/04 11:47:05;;;;;;;;;;;;;;;13.89;32.06;103011.94;5056163;28;958;-84
2023/04/04 11:49:42;;;;;;;;;;;;;;;13.87;32.40;103011.19;5055727;28;724;-84
2023/04/04 11:52:14;;;;;;;;;;;;;;;13.70;33.21;102998.69;5070748;28;1209;-84
2023/04/04 11:54:42;;;;;;;;;;;;;;;14.26;32.88;103000.66;5055941;28;699;-84
2023/04/04 11:57:13;;;;;;;;;;;;;;;14.84;32.65;102999.69;5055889;28;877;-84
2023/04/04 11:59:41;;;;;;;;;;;;;;;14.45;32.78;102997.69;5055607;28;790;-84
2023/04/04 12:02:11;;;;;;;;;;;;;;;14.60;32.35;102977.84;5054864;28;1188;-85
2023/04/04 12:04:43;;;;;;;;;;;;;;;15.21;32.27;102978.38;5056144;28;1955;-84
2023/04/04 12:07:09;;;;;;;;;;;;;;;15.67;33.26;102978.03;5055766;28;657;-84
2023/04/04 12:09:35;;;;;;;;;;;;;;;15.64;31.58;102976.44;5055950;28;754;-84
2023/04/04 12:12:02;;;;;;;;;;;;;;;15.30;31.70;102971.50;5055159;28;1254;-85
2023/04/04 12:14:31;;;;;;;;;;;;;;;15.71;31.42;102974.16;5055784;28;842;-84
2023/04/04 12:17:00;;;;;;;;;;;;;;;16.30;31.76;102963.69;5055880;28;795;-84
2023/04/04 12:19:28;;;;;;;;;;;;;;;15.29;31.30;102961.66;5055424;28;876;-85
2023/04/04 12:21:56;;;;;;;;;;;;;;;14.79;31.93;102963.16;5054701;28;1244;-85
2023/04/04 12:24:22;;;;;;;;;;;;;;;14.88;32.73;102957.16;5055687;28;794;-85
2023/04/04 12:26:51;;;;;;;;;;;;;;;14.90;31.66;102956.06;5055881;28;1947;-85
2023/04/04 12:29:21;;;;;;;;;;;;;;;14.46;32.48;102958.94;5055666;28;783;-85
2023/04/04 12:31:48;;;;;;;;;;;;;;;14.82;31.98;102944.03;5054635;28;1275;-85
2023/04/04 12:34:46;;;;;;;;;;;;;;;14.90;31.95;102934.47;5055522;28;820;-85
2023/04/04 12:37:15;;;;;;;;;;;;;;;15.56;32.06;102927.34;5046432;28;1314;-84
2023/04/04 12:39:49;;;;;;;;;;;;;;;16.20;30.94;102928.28;5054019;28;876;-85
2023/04/04 12:42:23;;;;;;;;;;;;;;;15.64;30.88;102926.88;5055168;28;1256;-85
2023/04/04 12:44:51;;;;;;;;;;;;;;;15.02;31.52;102921.97;5055354;28;1882;-85
2023/04/04 12:47:19;;;;;;;;;;;;;;;15.49;31.87;102918.78;5055436;28;894;-85
2023/04/04 12:49:47;;;;;;;;;;;;;;;15.76;32.48;102923.31;5055207;28;802;-85
2023/04/04 12:52:22;;;;;;;;;;;;;;;16.45;32.80;102908.44;5054934;28;1180;-85
2023/04/04 12:54:52;;;;;;;;;;;;;;;17.08;30.78;102907.38;5055783;28;783;-85
2023/04/04 12:57:21;;;;;;;;;;;;;;;17.65;30.34;102908.47;5055549;28;549;-85
2023/04/04 12:59:47;;;;;;;;;;;;;;;17.97;29.80;102906.84;5055383;28;796;-85
2023/04/04 13:02:17;;;;;;;;;;;;;;;17.93;30.26;102901.78;5054976;28;1173;-85
2023/04/04 13:04:46;;;;;;;;;;;;;;;18.02;28.66;102904.63;5055736;28;802;-85